createdAt,value
2023-05-19T00:00:18.509Z,102117.47
2023-05-19T00:02:45.595Z,102115.72
2023-05-19T00:05:15.526Z,102118.28
2023-05-19T00:07:45.997Z,102127.56
2023-05-19T00:10:13.967Z,102121.53
2023-05-19T00:12:42.862Z,102124.19
2023-05-19T00:15:13.079Z,102129.03
2023-05-19T00:17:39.685Z,102130.41
2023-05-19T00:20:06.929Z,102124.34
2023-05-19T00:22:33.562Z,102127.59
2023-05-19T00:25:00.346Z,102133.50
2023-05-19T00:27:26.957Z,102142.78
2023-05-19T00:29:53.724Z,102129.97
2023-05-19T00:32:21.359Z,102126.34
2023-05-19T00:34:48.329Z,102126.28
2023-05-19T00:37:16.187Z,102125.19
2023-05-19T00:39:42.723Z,102123.63
2023-05-19T00:42:09.543Z,102115.00
2023-05-19T00:44:40.791Z,102121.78
2023-05-19T00:47:10.400Z,102120.97
2023-05-19T00:49:36.851Z,102120.63
2023-05-19T00:52:06.161Z,102123.97
2023-05-19T00:54:34.533Z,102121.38
2023-05-19T00:57:01.309Z,102122.97
2023-05-19T00:59:28.006Z,102125.53
2023-05-19T01:01:54.699Z,102125.41
2023-05-19T01:04:21.940Z,102126.94
2023-05-19T01:06:49.493Z,102129.34
2023-05-19T01:09:17.398Z,102121.44
2023-05-19T01:11:43.844Z,102126.34
2023-05-19T01:14:10.498Z,102119.56
2023-05-19T01:16:42.496Z,102119.47
2023-05-19T01:19:51.105Z,102114.38
2023-05-19T01:22:42.195Z,102116.44
2023-05-19T01:25:08.731Z,102110.41
2023-05-19T01:28:08.033Z,102116.19
2023-05-19T01:30:38.591Z,102106.63
2023-05-19T01:33:08.309Z,102115.88
2023-05-19T01:35:36.689Z,102111.44
2023-05-19T01:38:05.370Z,102122.47
2023-05-19T01:40:33.499Z,102125.84
2023-05-19T01:43:01.901Z,102122.22
2023-05-19T01:45:30.291Z,102122.28
2023-05-19T01:47:59.115Z,102123.75
2023-05-19T01:50:26.927Z,102121.19
2023-05-19T01:52:55.371Z,102117.88
2023-05-19T01:55:23.893Z,102122.59
2023-05-19T01:58:06.609Z,102127.63
2023-05-19T02:00:54.275Z,102119.97
2023-05-19T02:03:42.759Z,102120.75
2023-05-19T02:06:30.448Z,102119.81
2023-05-19T02:08:59.576Z,102116.34
2023-05-19T02:11:36.463Z,102115.22
2023-05-19T02:14:24.831Z,102116.81
2023-05-19T02:16:52.577Z,102117.69
2023-05-19T02:19:24.320Z,102120.97
2023-05-19T02:21:51.362Z,102120.97
2023-05-19T02:24:18.617Z,102116.75
2023-05-19T02:26:47.178Z,102115.22
2023-05-19T02:29:16.032Z,102115.25
2023-05-19T02:31:42.824Z,102121.22
2023-05-19T02:34:09.722Z,102114.59
2023-05-19T02:36:36.684Z,102113.66
2023-05-19T02:39:04.292Z,102116.25
2023-05-19T02:41:32.102Z,102116.41
2023-05-19T02:43:58.827Z,102115.66
2023-05-19T02:46:25.455Z,102111.53
2023-05-19T02:48:53.329Z,102110.81
2023-05-19T02:51:20.051Z,102115.22
2023-05-19T02:53:46.803Z,102109.28
2023-05-19T02:56:13.707Z,102108.47
2023-05-19T02:58:40.259Z,102107.53
2023-05-19T03:01:07.051Z,102106.75
2023-05-19T03:03:33.700Z,102103.59
2023-05-19T03:06:00.351Z,102102.59
2023-05-19T03:08:27.141Z,102106.00
2023-05-19T03:10:53.925Z,102110.28
2023-05-19T03:13:20.740Z,102100.25
2023-05-19T03:15:47.582Z,102101.03
2023-05-19T03:18:14.274Z,102095.88
2023-05-19T03:20:41.731Z,102103.59
2023-05-19T03:23:08.345Z,102100.91
2023-05-19T03:25:35.142Z,102098.38
2023-05-19T03:28:01.791Z,102103.53
2023-05-19T03:30:28.607Z,102103.47
2023-05-19T03:32:55.272Z,102113.66
2023-05-19T03:35:21.971Z,102107.63
2023-05-19T03:37:48.762Z,102104.25
2023-05-19T03:40:16.097Z,102108.50
2023-05-19T03:42:42.541Z,102108.69
2023-05-19T03:45:09.342Z,102109.56
2023-05-19T03:47:36.166Z,102100.38
2023-05-19T03:50:02.883Z,102102.91
2023-05-19T03:52:29.756Z,102104.75
2023-05-19T03:54:56.322Z,102100.59
2023-05-19T03:57:22.940Z,102107.56
2023-05-19T03:59:49.830Z,102110.28
2023-05-19T04:02:16.980Z,102103.63
2023-05-19T04:04:43.668Z,102109.75
2023-05-19T04:07:10.245Z,102108.09
2023-05-19T04:09:36.736Z,102107.41
2023-05-19T04:12:03.341Z,102107.59
2023-05-19T04:14:29.848Z,102108.69
2023-05-19T04:16:56.371Z,102114.88
2023-05-19T04:19:23.460Z,102113.38
2023-05-19T04:21:50.048Z,102118.63
2023-05-19T04:24:18.616Z,102108.63
2023-05-19T04:26:45.384Z,102114.88
2023-05-19T04:29:12.018Z,102115.00
2023-05-19T04:31:38.654Z,102122.03
2023-05-19T04:34:05.514Z,102107.72
2023-05-19T04:36:32.395Z,102112.97
2023-05-19T04:38:58.948Z,102118.25
2023-05-19T04:41:25.782Z,102114.97
2023-05-19T04:43:52.322Z,102112.50
2023-05-19T04:46:19.511Z,102114.59
2023-05-19T04:48:45.873Z,102115.59
2023-05-19T04:51:12.447Z,102115.06
2023-05-19T04:53:39.260Z,102115.34
2023-05-19T04:56:06.358Z,102118.78
2023-05-19T04:58:34.494Z,102114.78
2023-05-19T05:01:01.273Z,102118.34
2023-05-19T05:03:30.061Z,102111.09
2023-05-19T05:05:56.753Z,102117.25
2023-05-19T05:08:23.502Z,102114.06
2023-05-19T05:10:53.765Z,102115.25
2023-05-19T05:13:24.090Z,102103.56
2023-05-19T05:15:51.186Z,102111.56
2023-05-19T05:18:17.813Z,102110.22
2023-05-19T05:20:45.721Z,102110.31
2023-05-19T05:23:12.800Z,102116.59
2023-05-19T05:25:39.674Z,102105.81
2023-05-19T05:28:06.481Z,102111.38
2023-05-19T05:30:34.642Z,102115.00
2023-05-19T05:33:02.335Z,102119.56
2023-05-19T05:35:28.948Z,102117.44
2023-05-19T05:37:55.689Z,102116.19
2023-05-19T05:40:22.245Z,102117.41
2023-05-19T05:42:48.766Z,102121.22
2023-05-19T05:45:15.507Z,102118.97
2023-05-19T05:47:42.370Z,102120.16
2023-05-19T05:50:10.423Z,102112.75
2023-05-19T05:52:37.724Z,102119.94
2023-05-19T05:55:06.515Z,102118.72
2023-05-19T05:57:34.842Z,102120.69
2023-05-19T06:00:01.402Z,102126.06
2023-05-19T06:02:28.044Z,102121.97
2023-05-19T06:04:54.609Z,102111.94
2023-05-19T06:07:21.649Z,102123.31
2023-05-19T06:09:48.468Z,102118.53
2023-05-19T06:12:15.070Z,102122.16
2023-05-19T06:14:41.805Z,102107.03
2023-05-19T06:17:08.357Z,102110.03
2023-05-19T06:19:35.229Z,102106.69
2023-05-19T06:22:01.740Z,102110.41
2023-05-19T06:24:28.485Z,102103.78
2023-05-19T06:26:55.974Z,102108.13
2023-05-19T06:29:23.171Z,102105.06
2023-05-19T06:31:50.121Z,102110.34
2023-05-19T06:34:16.646Z,102102.91
2023-05-19T06:36:43.318Z,102109.13
2023-05-19T06:39:09.990Z,102109.22
2023-05-19T06:41:36.724Z,102100.88
2023-05-19T06:44:04.641Z,102102.03
2023-05-19T06:46:31.272Z,102104.75
2023-05-19T06:48:57.843Z,102110.78
2023-05-19T06:51:24.587Z,102110.84
2023-05-19T06:53:51.323Z,102110.19
2023-05-19T06:56:17.935Z,102103.50
2023-05-19T06:58:45.390Z,102110.34
2023-05-19T07:01:11.913Z,102115.47
2023-05-19T07:03:38.801Z,102109.59
2023-05-19T07:06:07.859Z,102116.47
2023-05-19T07:08:35.191Z,102121.78
2023-05-19T07:11:01.727Z,102120.28
2023-05-19T07:13:28.303Z,102116.19
2023-05-19T07:15:55.275Z,102112.03
2023-05-19T07:18:22.516Z,102118.28
2023-05-19T07:20:49.144Z,102114.94
2023-05-19T07:23:17.346Z,102120.19
2023-05-19T07:25:44.407Z,102117.78
2023-05-19T07:28:10.989Z,102123.00
2023-05-19T07:30:37.841Z,102124.72
2023-05-19T07:33:04.872Z,102126.53
2023-05-19T07:35:31.718Z,102115.28
2023-05-19T07:37:58.350Z,102116.19
2023-05-19T07:40:24.967Z,102125.66
2023-05-19T07:42:52.126Z,102122.22
2023-05-19T07:45:18.765Z,102115.38
2023-05-19T07:47:45.413Z,102115.38
2023-05-19T07:50:12.237Z,102106.06
2023-05-19T07:52:38.808Z,102107.78
2023-05-19T07:55:05.634Z,102101.81
2023-05-19T07:57:34.546Z,102102.72
2023-05-19T08:00:01.078Z,102101.91
2023-05-19T08:02:27.944Z,102096.78
2023-05-19T08:04:54.582Z,102101.09
2023-05-19T08:07:21.195Z,102097.66
2023-05-19T08:09:48.028Z,102102.88
2023-05-19T08:12:14.837Z,102101.16
2023-05-19T08:14:41.611Z,102102.88
2023-05-19T08:17:08.336Z,102099.44
2023-05-19T08:19:35.418Z,102106.31
2023-05-19T08:22:01.998Z,102098.56
2023-05-19T08:24:28.520Z,102098.53
2023-05-19T08:26:55.471Z,102098.50
2023-05-19T08:29:22.192Z,102104.56
2023-05-19T08:31:49.149Z,102101.88
2023-05-19T08:34:15.788Z,102104.44
2023-05-19T08:36:42.516Z,102103.53
2023-05-19T08:39:09.365Z,102110.38
2023-05-19T08:41:36.263Z,102108.66
2023-05-19T08:44:02.941Z,102102.63
2023-05-19T08:46:29.801Z,102099.91
2023-05-19T08:48:59.684Z,102101.59
2023-05-19T08:52:00.021Z,102103.22
2023-05-19T08:54:33.191Z,102096.19
2023-05-19T08:57:02.857Z,102098.63
2023-05-19T08:59:30.527Z,102091.72
2023-05-19T09:01:57.606Z,102084.78
2023-05-19T09:04:26.437Z,102085.44
2023-05-19T09:06:54.338Z,102073.00
2023-05-19T09:09:21.636Z,102073.69
2023-05-19T09:11:48.417Z,102079.47
2023-05-19T09:14:14.942Z,102074.41
2023-05-19T09:16:42.017Z,102068.44
2023-05-19T09:19:14.230Z,102069.41
2023-05-19T09:21:40.734Z,102065.19
2023-05-19T09:24:09.590Z,102067.25
2023-05-19T09:26:39.906Z,102069.78
2023-05-19T09:29:16.749Z,102071.63
2023-05-19T09:31:54.181Z,102062.09
2023-05-19T09:34:21.945Z,102059.41
2023-05-19T09:36:48.951Z,102054.75
2023-05-19T09:39:16.320Z,102055.16
2023-05-19T09:41:43.584Z,102048.97
2023-05-19T09:44:28.368Z,102049.31
2023-05-19T09:46:55.616Z,102058.19
2023-05-19T09:49:26.928Z,102048.72
2023-05-19T09:51:57.867Z,102053.63
2023-05-19T09:54:25.234Z,102042.19
2023-05-19T09:57:00.541Z,102049.44
2023-05-19T09:59:31.341Z,102036.25
2023-05-19T10:02:00.239Z,102040.47
2023-05-19T10:04:29.091Z,102044.91
2023-05-19T10:06:57.726Z,102034.41
2023-05-19T10:09:25.933Z,102034.84
2023-05-19T10:11:53.757Z,102025.38
2023-05-19T10:14:27.020Z,102032.69
2023-05-19T10:16:57.292Z,102028.13
2023-05-19T10:19:25.963Z,102012.13
2023-05-19T10:21:52.878Z,102016.69
2023-05-19T10:24:19.949Z,102022.00
2023-05-19T10:27:00.664Z,102022.84
2023-05-19T10:29:30.592Z,102021.84
2023-05-19T10:32:04.714Z,102034.50
2023-05-19T10:35:05.759Z,102031.84
2023-05-19T10:37:58.824Z,102016.59
2023-05-19T10:40:29.570Z,102013.78
2023-05-19T10:43:17.613Z,102024.19
2023-05-19T10:45:54.642Z,102024.59
2023-05-19T10:48:21.463Z,102019.53
2023-05-19T10:50:49.335Z,102013.81
2023-05-19T10:53:17.879Z,102012.22
2023-05-19T10:55:47.959Z,102014.38
2023-05-19T10:58:14.876Z,102006.34
2023-05-19T11:00:41.541Z,102012.56
2023-05-19T11:03:14.805Z,102006.25
2023-05-19T11:05:41.704Z,101996.97
2023-05-19T11:08:08.239Z,101992.25
2023-05-19T11:10:34.762Z,101996.81
2023-05-19T11:13:01.244Z,101998.94
2023-05-19T11:15:28.600Z,101997.19
2023-05-19T11:17:55.629Z,101999.44
2023-05-19T11:20:23.394Z,101998.06
2023-05-19T11:23:16.106Z,102003.22
2023-05-19T11:25:50.054Z,101997.44
2023-05-19T11:28:18.583Z,102000.53
2023-05-19T11:30:46.915Z,102003.13
2023-05-19T11:33:14.033Z,102000.13
2023-05-19T11:35:41.021Z,101994.63
2023-05-19T11:38:07.687Z,102002.31
2023-05-19T11:40:34.335Z,101990.78
2023-05-19T11:43:00.823Z,101977.19
2023-05-19T11:45:29.398Z,101981.78
2023-05-19T11:48:01.846Z,101982.28
2023-05-19T11:50:31.443Z,101975.03
2023-05-19T11:53:00.605Z,101982.91
2023-05-19T11:55:27.707Z,101971.06
2023-05-19T11:58:04.964Z,101973.22
2023-05-19T12:00:38.606Z,101981.34
2023-05-19T12:03:06.017Z,101972.59
2023-05-19T12:05:36.623Z,101974.25
2023-05-19T12:08:06.344Z,101972.31
2023-05-19T12:10:33.028Z,101970.56
2023-05-19T12:12:59.548Z,101975.09
2023-05-19T12:15:26.495Z,101976.75
2023-05-19T12:18:02.419Z,101980.31
2023-05-19T12:20:29.952Z,101969.13
2023-05-19T12:22:56.669Z,101973.72
2023-05-19T12:25:24.316Z,101973.13
2023-05-19T12:27:51.159Z,101973.91
2023-05-19T12:30:17.730Z,101972.31
2023-05-19T12:32:46.011Z,101976.34
2023-05-19T12:35:12.580Z,101974.44
2023-05-19T12:37:42.624Z,101974.69
2023-05-19T12:40:09.803Z,101970.94
2023-05-19T12:42:36.480Z,101967.91
2023-05-19T12:45:04.201Z,101969.63
2023-05-19T12:47:32.710Z,101969.59
2023-05-19T12:49:59.236Z,101969.88
2023-05-19T12:52:27.190Z,101967.53
2023-05-19T12:55:00.666Z,101957.16
2023-05-19T12:57:28.724Z,101953.88
2023-05-19T13:00:00.991Z,101954.84
2023-05-19T13:02:27.674Z,101948.41
2023-05-19T13:04:54.130Z,101963.56
2023-05-19T13:07:21.494Z,101956.34
2023-05-19T13:09:48.263Z,101955.88
2023-05-19T13:12:14.790Z,101950.66
2023-05-19T13:14:41.610Z,101945.28
2023-05-19T13:17:08.146Z,101950.41
2023-05-19T13:19:35.180Z,101960.25
2023-05-19T13:22:01.783Z,101945.91
2023-05-19T13:24:28.263Z,101957.75
2023-05-19T13:26:56.017Z,101959.47
2023-05-19T13:29:22.928Z,101947.47
2023-05-19T13:31:49.467Z,101956.81
2023-05-19T13:34:15.987Z,101951.78
2023-05-19T13:36:42.809Z,101951.69
2023-05-19T13:39:09.559Z,101948.78
2023-05-19T13:41:36.054Z,101948.06
2023-05-19T13:44:02.740Z,101946.88
2023-05-19T13:46:40.746Z,101950.13
2023-05-19T13:49:11.170Z,101949.94
2023-05-19T13:51:37.925Z,101951.91
2023-05-19T13:54:04.290Z,101945.84
2023-05-19T13:56:30.803Z,101941.34
2023-05-19T13:58:57.290Z,101932.72
2023-05-19T14:01:23.776Z,101942.34
2023-05-19T14:03:50.382Z,101939.75
2023-05-19T14:06:16.871Z,101948.00
2023-05-19T14:08:43.623Z,101943.75
2023-05-19T14:11:09.971Z,101946.69
2023-05-19T14:13:40.388Z,101955.28
2023-05-19T14:16:09.263Z,101960.25
2023-05-19T14:18:36.038Z,101956.56
2023-05-19T14:21:02.781Z,101951.66
2023-05-19T14:23:29.133Z,101949.63
2023-05-19T14:25:56.217Z,101950.22
2023-05-19T14:28:22.891Z,101957.25
2023-05-19T14:30:50.263Z,101949.50
2023-05-19T14:33:17.345Z,101950.31
2023-05-19T14:35:44.224Z,101950.44
2023-05-19T14:38:10.845Z,101945.72
2023-05-19T14:40:37.858Z,101961.66
2023-05-19T14:43:04.490Z,101952.16
2023-05-19T14:45:30.917Z,101954.72
2023-05-19T14:47:58.129Z,101965.09
2023-05-19T14:50:26.093Z,101964.34
2023-05-19T14:52:53.534Z,101968.75
2023-05-19T14:55:21.853Z,101965.25
2023-05-19T14:57:51.166Z,101956.38
2023-05-19T15:00:18.326Z,101959.97
2023-05-19T15:02:46.374Z,101969.44
2023-05-19T15:05:13.068Z,101964.28
2023-05-19T15:07:40.388Z,101963.03
2023-05-19T15:10:07.757Z,101965.94
2023-05-19T15:12:34.658Z,101963.97
2023-05-19T15:15:03.436Z,101958.81
2023-05-19T15:17:30.179Z,101951.09
2023-05-19T15:19:56.825Z,101957.44
2023-05-19T15:22:23.566Z,101959.59
2023-05-19T15:24:50.123Z,101959.00
2023-05-19T15:27:16.883Z,101955.66
2023-05-19T15:29:43.393Z,101951.06
2023-05-19T15:32:10.190Z,101953.66
2023-05-19T15:34:36.868Z,101949.22
2023-05-19T15:37:03.932Z,101950.63
2023-05-19T15:39:34.649Z,101955.22
2023-05-19T15:42:03.636Z,101949.31
2023-05-19T15:44:31.608Z,101950.44
2023-05-19T15:47:01.463Z,101949.78
2023-05-19T15:49:28.037Z,101952.41
2023-05-19T15:51:54.796Z,101940.47
2023-05-19T15:54:21.128Z,101952.63
2023-05-19T15:56:47.966Z,101947.47
2023-05-19T15:59:14.958Z,101937.94
2023-05-19T16:01:41.703Z,101947.44
2023-05-19T16:04:08.214Z,101950.81
2023-05-19T16:06:35.122Z,101942.25
2023-05-19T16:09:02.330Z,101951.06
2023-05-19T16:11:29.062Z,101951.03
2023-05-19T16:13:55.662Z,101950.13
2023-05-19T16:16:22.493Z,101954.53
2023-05-19T16:18:49.433Z,101951.97
2023-05-19T16:21:17.525Z,101947.63
2023-05-19T16:23:44.352Z,101945.06
2023-05-19T16:26:11.358Z,101941.50
2023-05-19T16:28:38.521Z,101934.72
2023-05-19T16:31:05.269Z,101934.66
2023-05-19T16:33:31.828Z,101937.19
2023-05-19T16:35:59.115Z,101931.09
2023-05-19T16:38:26.055Z,101920.81
2023-05-19T16:40:52.753Z,101925.84
2023-05-19T16:43:19.465Z,101925.06
2023-05-19T16:45:46.406Z,101923.25
2023-05-19T16:48:13.006Z,101935.66
2023-05-19T16:50:39.629Z,101934.69
2023-05-19T16:53:06.556Z,101943.41
2023-05-19T16:55:34.339Z,101944.25
2023-05-19T16:58:01.083Z,101934.75
2023-05-19T17:00:27.902Z,101939.06
2023-05-19T17:02:54.608Z,101934.81
2023-05-19T17:05:21.472Z,101931.34
2023-05-19T17:07:47.947Z,101927.19
2023-05-19T17:10:14.779Z,101924.53
2023-05-19T17:12:41.338Z,101927.94
2023-05-19T17:15:08.237Z,101930.47
2023-05-19T17:17:34.706Z,101928.69
2023-05-19T17:20:03.582Z,101931.41
2023-05-19T17:22:30.524Z,101934.06
2023-05-19T17:24:57.355Z,101928.84
2023-05-19T17:27:23.887Z,101936.72
2023-05-19T17:29:50.460Z,101931.69
2023-05-19T17:32:17.378Z,101939.41
2023-05-19T17:34:44.511Z,101930.81
2023-05-19T17:37:11.380Z,101931.75
2023-05-19T17:39:39.564Z,101948.22
2023-05-19T17:42:06.204Z,101943.13
2023-05-19T17:44:33.022Z,101944.03
2023-05-19T17:47:01.795Z,101948.41
2023-05-19T17:49:29.969Z,101956.16
2023-05-19T17:51:56.716Z,101957.94
2023-05-19T17:54:23.661Z,101952.75
2023-05-19T17:56:51.109Z,101954.50
2023-05-19T17:59:17.890Z,101959.69
2023-05-19T18:01:44.881Z,101963.16
2023-05-19T18:04:16.053Z,101958.00
2023-05-19T18:06:45.221Z,101955.44
2023-05-19T18:09:13.850Z,101952.84
2023-05-19T18:11:44.559Z,101952.84
2023-05-19T18:14:11.102Z,101950.28
2023-05-19T18:16:38.913Z,101945.13
2023-05-19T18:19:05.893Z,101955.47
2023-05-19T18:21:32.498Z,101953.75
2023-05-19T18:23:59.370Z,101955.47
2023-05-19T18:26:27.704Z,101958.06
2023-05-19T18:28:54.704Z,101958.06
2023-05-19T18:31:21.278Z,101958.03
2023-05-19T18:33:49.346Z,101968.34
2023-05-19T18:36:16.233Z,101969.22
2023-05-19T18:38:42.908Z,101970.06
2023-05-19T18:41:09.633Z,101970.06
2023-05-19T18:43:36.140Z,101970.06
2023-05-19T18:46:05.519Z,101977.81
2023-05-19T18:48:32.138Z,101977.81
2023-05-19T18:50:59.634Z,101976.06
2023-05-19T18:53:26.880Z,101979.50
2023-05-19T18:55:56.335Z,101973.44
2023-05-19T18:58:22.852Z,101977.72
2023-05-19T19:00:49.388Z,101975.13
2023-05-19T19:03:16.309Z,101976.84
2023-05-19T19:05:43.805Z,101987.13
2023-05-19T19:08:10.332Z,101981.06
2023-05-19T19:10:37.423Z,101977.59
2023-05-19T19:13:04.440Z,101981.03
2023-05-19T19:15:31.029Z,101982.72
2023-05-19T19:17:57.661Z,101981.84
2023-05-19T19:20:27.275Z,101991.28
2023-05-19T19:22:53.782Z,101984.34
2023-05-19T19:25:23.095Z,101980.00
2023-05-19T19:27:50.247Z,101985.09
2023-05-19T19:30:16.842Z,101985.06
2023-05-19T19:32:43.831Z,101986.75
2023-05-19T19:35:11.015Z,101990.16
2023-05-19T19:37:38.499Z,101986.69
2023-05-19T19:40:06.025Z,101998.66
2023-05-19T19:42:32.789Z,101991.78
2023-05-19T19:44:59.488Z,101987.41
2023-05-19T19:47:27.149Z,101994.19
2023-05-19T19:49:54.024Z,101991.56
2023-05-19T19:52:20.711Z,101998.34
2023-05-19T19:54:47.482Z,101996.59
2023-05-19T19:57:14.436Z,101992.28
2023-05-19T19:59:40.856Z,101986.19
2023-05-19T20:02:07.688Z,101989.59
2023-05-19T20:04:34.491Z,101989.47
2023-05-19T20:07:01.429Z,101995.50
2023-05-19T20:09:27.955Z,101994.69
2023-05-19T20:11:54.574Z,101990.28
2023-05-19T20:14:21.313Z,101991.94
2023-05-19T20:16:48.171Z,101991.88
2023-05-19T20:19:14.967Z,101994.28
2023-05-19T20:21:42.151Z,101995.03
2023-05-19T20:24:08.952Z,101997.56
2023-05-19T20:26:36.012Z,101992.38
2023-05-19T20:29:03.121Z,101993.19
2023-05-19T20:31:29.808Z,102007.72
2023-05-19T20:33:57.308Z,102007.69
2023-05-19T20:36:25.243Z,102008.44
2023-05-19T20:38:51.822Z,102017.75
2023-05-19T20:41:18.656Z,102020.25
2023-05-19T20:43:45.158Z,102027.06
2023-05-19T20:46:12.072Z,102025.31
2023-05-19T20:48:38.846Z,102023.50
2023-05-19T20:51:05.552Z,102022.59
2023-05-19T20:53:32.328Z,102015.66
2023-05-19T20:55:59.128Z,102010.44
2023-05-19T20:58:27.852Z,102020.56
2023-05-19T21:00:54.769Z,102023.94
2023-05-19T21:03:23.384Z,102024.69
2023-05-19T21:05:51.983Z,102023.78
2023-05-19T21:08:19.729Z,102013.41
2023-05-19T21:10:46.366Z,102013.41
2023-05-19T21:13:13.109Z,102009.84
2023-05-19T21:15:39.780Z,102014.09
2023-05-19T21:18:07.454Z,102013.06
2023-05-19T21:20:36.629Z,102015.59
2023-05-19T21:23:03.785Z,102018.09
2023-05-19T21:25:30.419Z,102019.72
2023-05-19T21:27:58.436Z,102029.03
2023-05-19T21:30:25.240Z,102031.50
2023-05-19T21:32:52.087Z,102034.91
2023-05-19T21:35:18.789Z,102030.53
2023-05-19T21:37:45.656Z,102031.34
2023-05-19T21:40:12.889Z,102031.19
2023-05-19T21:42:39.655Z,102035.38
2023-05-19T21:45:06.981Z,102032.75
2023-05-19T21:47:33.521Z,102041.28
2023-05-19T21:50:00.211Z,102044.59
2023-05-19T21:52:27.348Z,102044.53
2023-05-19T21:54:53.972Z,102041.00
2023-05-19T21:57:20.497Z,102042.66
2023-05-19T21:59:47.146Z,102042.63
2023-05-19T22:02:13.678Z,102045.19
2023-05-19T22:04:41.431Z,102047.72
2023-05-19T22:07:08.037Z,102042.59
2023-05-19T22:09:34.548Z,102042.44
2023-05-19T22:12:01.430Z,102045.78
2023-05-19T22:14:27.959Z,102043.19
2023-05-19T22:16:54.538Z,102041.28
2023-05-19T22:19:21.492Z,102043.84
2023-05-19T22:21:49.242Z,102042.16
2023-05-19T22:24:17.177Z,102035.22
2023-05-19T22:26:43.800Z,102037.66
2023-05-19T22:29:10.578Z,102042.81
2023-05-19T22:31:37.292Z,102034.16
2023-05-19T22:34:04.170Z,102045.19
2023-05-19T22:36:30.728Z,102045.13
2023-05-19T22:38:58.656Z,102052.00
2023-05-19T22:41:31.100Z,102054.47
2023-05-19T22:43:57.845Z,102053.44
2023-05-19T22:46:24.653Z,102050.88
2023-05-19T22:48:51.200Z,102046.53
2023-05-19T22:51:17.651Z,102051.66
2023-05-19T22:53:44.186Z,102051.50
2023-05-19T22:56:10.689Z,102056.59
2023-05-19T22:58:37.253Z,102054.84
2023-05-19T23:01:04.036Z,102056.56
2023-05-19T23:03:30.523Z,102064.25
2023-05-19T23:05:57.100Z,102061.59
2023-05-19T23:08:23.884Z,102059.78
2023-05-19T23:10:50.647Z,102065.69
2023-05-19T23:13:17.414Z,102071.47
2023-05-19T23:15:44.149Z,102063.69
2023-05-19T23:18:10.975Z,102060.16
2023-05-19T23:20:37.572Z,102064.47
2023-05-19T23:23:04.377Z,102062.63
2023-05-19T23:25:31.197Z,102055.75
2023-05-19T23:27:57.971Z,102055.75
2023-05-19T23:30:24.675Z,102052.97
2023-05-19T23:32:51.391Z,102054.63
2023-05-19T23:35:18.322Z,102053.63
2023-05-19T23:37:45.113Z,102047.53
2023-05-19T23:40:13.480Z,102044.91
2023-05-19T23:42:40.291Z,102048.19
2023-05-19T23:45:07.477Z,102049.00
2023-05-19T23:47:36.482Z,102045.44
2023-05-19T23:50:03.375Z,102035.09
2023-05-19T23:52:29.956Z,102040.25
2023-05-19T23:54:58.538Z,102038.50
2023-05-19T23:57:26.930Z,102035.84
2023-05-19T23:59:53.434Z,102036.56
